createdAt,value
2019-06-08T00:00:13.179Z,12.70
2019-06-08T00:02:41.443Z,12.80
2019-06-08T00:05:30.872Z,12.70
2019-06-08T00:07:59.412Z,12.70
2019-06-08T00:10:27.979Z,12.70
2019-06-08T00:12:56.516Z,12.70
2019-06-08T00:15:25.080Z,12.60
2019-06-08T00:17:54.997Z,12.60
2019-06-08T00:20:23.792Z,12.60
2019-06-08T00:22:52.406Z,12.60
2019-06-08T00:25:22.200Z,12.50
2019-06-08T00:27:51.229Z,12.40
2019-06-08T00:30:20.189Z,12.40
2019-06-08T00:32:49.081Z,12.40
2019-06-08T00:35:18.669Z,12.40
2019-06-08T00:37:47.322Z,12.30
2019-06-08T00:40:16.840Z,12.30
2019-06-08T00:42:45.523Z,12.20
2019-06-08T00:45:15.289Z,12.20
2019-06-08T00:47:47.915Z,12.20
2019-06-08T00:50:15.193Z,12.30
2019-06-08T00:52:43.734Z,12.20
2019-06-08T00:55:12.671Z,12.30
2019-06-08T00:57:41.214Z,12.30
2019-06-08T01:00:11.533Z,12.30
2019-06-08T01:02:40.779Z,12.30
2019-06-08T01:05:09.558Z,12.30
2019-06-08T01:07:38.456Z,12.40
2019-06-08T01:10:07.961Z,12.40
2019-06-08T01:12:36.651Z,12.30
2019-06-08T01:15:09.212Z,12.30
2019-06-08T01:17:37.857Z,12.30
2019-06-08T01:20:08.434Z,12.20
2019-06-08T01:22:37.139Z,12.20
2019-06-08T01:25:06.515Z,12.20
2019-06-08T01:27:35.148Z,12.20
2019-06-08T01:30:07.094Z,12.20
2019-06-08T01:32:35.716Z,12.20
2019-06-08T01:35:04.834Z,12.20
2019-06-08T01:37:33.388Z,12.20
2019-06-08T01:40:02.028Z,12.20
2019-06-08T01:42:31.793Z,12.20
2019-06-08T01:45:00.536Z,12.20
2019-06-08T01:47:30.317Z,12.20
2019-06-08T01:49:58.974Z,12.20
2019-06-08T01:52:28.852Z,12.20
2019-06-08T01:54:57.514Z,12.20
2019-06-08T01:57:27.150Z,12.20
2019-06-08T01:59:55.821Z,12.20
2019-06-08T02:02:25.589Z,12.10
2019-06-08T02:04:54.418Z,12.00
2019-06-08T02:07:24.205Z,12.00
2019-06-08T02:09:52.847Z,12.00
2019-06-08T02:12:21.396Z,12.00
2019-06-08T02:14:49.927Z,11.90
2019-06-08T02:17:18.503Z,11.90
2019-06-08T02:19:47.131Z,11.90
2019-06-08T02:22:16.007Z,11.90
2019-06-08T02:24:44.902Z,11.90
2019-06-08T02:27:13.447Z,11.90
2019-06-08T02:29:41.997Z,11.90
2019-06-08T02:32:10.851Z,11.90
2019-06-08T02:34:40.609Z,11.90
2019-06-08T02:37:09.260Z,11.90
2019-06-08T02:39:39.595Z,11.90
2019-06-08T02:42:08.084Z,11.90
2019-06-08T02:44:36.724Z,11.90
2019-06-08T02:47:05.536Z,12.00
2019-06-08T02:49:35.419Z,12.00
2019-06-08T02:52:05.246Z,12.10
2019-06-08T02:54:35.513Z,12.10
2019-06-08T02:57:05.083Z,12.10
2019-06-08T02:59:38.553Z,12.10
2019-06-08T03:02:08.800Z,12.10
2019-06-08T03:04:38.818Z,12.20
2019-06-08T03:07:10.355Z,12.20
2019-06-08T03:10:00.776Z,12.10
2019-06-08T03:12:31.141Z,12.20
2019-06-08T03:15:03.679Z,12.20
2019-06-08T03:17:33.387Z,12.20
2019-06-08T03:20:02.339Z,12.20
2019-06-08T03:22:32.055Z,12.30
2019-06-08T03:25:02.123Z,12.20
2019-06-08T03:27:32.633Z,12.30
2019-06-08T03:30:15.131Z,12.20
2019-06-08T03:32:33.780Z,12.20
2019-06-08T03:35:01.852Z,12.20
2019-06-08T03:37:30.632Z,12.30
2019-06-08T03:39:59.170Z,12.30
2019-06-08T03:42:27.998Z,12.30
2019-06-08T03:44:56.844Z,12.30
2019-06-08T03:47:25.384Z,12.40
2019-06-08T03:49:57.315Z,12.30
2019-06-08T03:52:24.136Z,12.30
2019-06-08T03:54:52.964Z,12.30
2019-06-08T03:57:21.529Z,12.30
2019-06-08T03:59:50.335Z,12.30
2019-06-08T04:02:18.869Z,12.30
2019-06-08T04:04:47.446Z,12.30
2019-06-08T04:07:15.983Z,12.40
2019-06-08T04:09:45.919Z,12.40
2019-06-08T04:12:15.198Z,12.40
2019-06-08T04:14:44.556Z,12.40
2019-06-08T04:17:14.180Z,12.40
2019-06-08T04:20:02.829Z,12.40
2019-06-08T04:22:13.208Z,12.40
2019-06-08T04:24:44.565Z,12.40
2019-06-08T04:27:12.800Z,12.50
2019-06-08T04:29:41.747Z,12.50
2019-06-08T04:32:10.515Z,12.50
2019-06-08T04:34:40.866Z,12.50
2019-06-08T04:37:09.276Z,12.60
2019-06-08T04:39:38.377Z,12.60
2019-06-08T04:42:07.469Z,12.60
2019-06-08T04:44:36.291Z,12.70
2019-06-08T04:47:05.293Z,12.70
2019-06-08T04:49:33.832Z,12.70
2019-06-08T04:52:02.388Z,12.60
2019-06-08T04:54:31.001Z,12.60
2019-06-08T04:57:00.608Z,12.50
2019-06-08T04:59:29.199Z,12.50
2019-06-08T05:01:57.726Z,12.50
2019-06-08T05:04:26.359Z,12.50
2019-06-08T05:06:55.293Z,12.50
2019-06-08T05:09:23.831Z,12.60
2019-06-08T05:11:52.418Z,12.70
2019-06-08T05:14:23.700Z,12.80
2019-06-08T05:16:52.260Z,13.00
2019-06-08T05:19:20.828Z,13.00
2019-06-08T05:21:50.018Z,13.10
2019-06-08T05:24:18.703Z,13.20
2019-06-08T05:26:47.425Z,13.30
2019-06-08T05:29:16.006Z,13.30
2019-06-08T05:31:45.525Z,13.40
2019-06-08T05:34:16.368Z,13.50
2019-06-08T05:36:47.455Z,13.60
2019-06-08T05:39:17.997Z,13.70
2019-06-08T05:41:49.825Z,13.70
2019-06-08T05:44:21.703Z,13.90
2019-06-08T05:46:54.101Z,13.90
2019-06-08T05:49:24.120Z,14.10
2019-06-08T05:51:54.858Z,14.20
2019-06-08T05:54:25.253Z,14.30
2019-06-08T05:57:01.484Z,14.40
2019-06-08T05:59:32.820Z,14.40
2019-06-08T06:02:03.074Z,14.50
2019-06-08T06:05:17.893Z,14.60
2019-06-08T06:07:52.335Z,14.80
2019-06-08T06:10:28.429Z,14.80
2019-06-08T06:12:59.245Z,14.90
2019-06-08T06:15:34.376Z,15.10
2019-06-08T06:18:28.640Z,15.30
2019-06-08T06:21:10.301Z,15.30
2019-06-08T06:23:41.041Z,15.40
2019-06-08T06:26:36.978Z,15.40
2019-06-08T06:29:09.711Z,15.50
2019-06-08T06:31:43.589Z,15.50
2019-06-08T06:34:17.366Z,15.60
2019-06-08T06:37:08.745Z,15.80
2019-06-08T06:39:45.939Z,16.10
2019-06-08T06:42:17.583Z,16.30
2019-06-08T06:44:50.564Z,16.30
2019-06-08T06:47:21.430Z,16.30
2019-06-08T06:49:53.619Z,16.40
2019-06-08T06:55:53.337Z,16.50
2019-06-08T07:00:58.485Z,16.80
2019-06-08T07:03:27.062Z,17.10
2019-06-08T07:05:55.681Z,17.30
2019-06-08T07:09:13.078Z,17.10
2019-06-08T07:11:41.971Z,17.10
2019-06-08T07:17:39.606Z,17.50
2019-06-08T07:20:10.247Z,17.60
2019-06-08T07:22:39.070Z,17.60
2019-06-08T07:25:08.230Z,17.80
2019-06-08T07:27:37.126Z,17.80
2019-06-08T07:30:07.107Z,17.50
2019-06-08T07:32:35.978Z,17.70
2019-06-08T07:35:07.694Z,17.90
2019-06-08T07:37:36.675Z,17.90
2019-06-08T07:40:08.763Z,18.00
2019-06-08T07:42:37.678Z,17.60
2019-06-08T07:45:27.326Z,17.40
2019-06-08T07:47:56.168Z,17.20
2019-06-08T07:50:25.101Z,17.00
2019-06-08T07:52:54.653Z,16.70
2019-06-08T07:55:23.958Z,16.80
2019-06-08T07:57:53.968Z,16.70
2019-06-08T08:00:23.091Z,16.50
2019-06-08T08:02:52.127Z,16.40
2019-06-08T08:05:20.945Z,16.50
2019-06-08T08:07:50.234Z,16.90
2019-06-08T08:10:19.572Z,16.90
2019-06-08T08:12:49.215Z,17.40
2019-06-08T08:15:18.736Z,17.50
2019-06-08T08:17:49.005Z,17.50
2019-06-08T08:20:18.125Z,17.40
2019-06-08T08:22:56.535Z,17.00
2019-06-08T08:25:22.795Z,16.90
2019-06-08T08:27:51.984Z,17.40
2019-06-08T08:30:21.833Z,17.70
2019-06-08T08:36:20.998Z,17.60
2019-06-08T08:38:50.310Z,18.20
2019-06-08T08:41:40.687Z,18.20
2019-06-08T08:44:09.300Z,17.80
2019-06-08T08:46:48.786Z,17.70
2019-06-08T08:49:18.223Z,17.40
2019-06-08T09:07:48.352Z,17.30
2019-06-08T09:10:18.289Z,17.10
2019-06-08T09:16:17.689Z,17.50
2019-06-08T09:18:48.019Z,18.20
2019-06-08T09:21:22.030Z,17.80
2019-06-08T09:30:32.021Z,17.50
2019-06-08T09:33:02.348Z,17.40
2019-06-08T09:35:31.679Z,17.20
2019-06-08T09:38:03.203Z,17.40
2019-06-08T09:40:32.525Z,17.70
2019-06-08T09:43:38.760Z,18.30
2019-06-08T09:46:09.341Z,18.30
2019-06-08T09:48:38.554Z,18.30
2019-06-08T09:51:09.384Z,18.10
2019-06-08T09:53:41.418Z,18.10
2019-06-08T09:56:28.283Z,17.60
2019-06-08T09:59:01.323Z,17.40
2019-06-08T10:01:28.635Z,17.20
2019-06-08T10:04:03.779Z,17.80
2019-06-08T10:06:33.162Z,18.00
2019-06-08T10:09:02.833Z,18.00
2019-06-08T10:11:33.296Z,17.90
2019-06-08T10:14:12.557Z,17.90
2019-06-08T10:16:54.095Z,18.10
2019-06-08T10:19:22.984Z,18.20
2019-06-08T10:21:51.924Z,18.40
2019-06-08T10:24:21.357Z,18.10
2019-06-08T10:27:44.426Z,17.90
2019-06-08T10:30:13.376Z,17.60
2019-06-08T10:32:41.935Z,18.00
2019-06-08T10:35:10.915Z,18.50
2019-06-08T10:37:39.749Z,18.50
2019-06-08T10:40:10.005Z,18.30
2019-06-08T10:42:40.191Z,18.00
2019-06-08T10:45:13.138Z,17.80
2019-06-08T10:47:40.188Z,17.70
2019-06-08T10:50:15.167Z,17.60
2019-06-08T10:52:42.983Z,17.80
2019-06-08T10:55:12.468Z,18.20
2019-06-08T10:57:41.438Z,18.40
2019-06-08T11:03:17.238Z,18.60
2019-06-08T11:05:48.345Z,18.80
2019-06-08T11:08:18.688Z,18.90
2019-06-08T11:10:47.540Z,18.60
2019-06-08T11:13:18.722Z,18.70
2019-06-08T11:15:48.108Z,18.90
2019-06-08T11:18:18.564Z,19.50
2019-06-08T11:20:47.915Z,19.80
2019-06-08T11:23:18.727Z,19.80
2019-06-08T11:25:48.779Z,19.40
2019-06-08T11:28:18.551Z,19.20
2019-06-08T11:30:48.139Z,18.90
2019-06-08T11:33:16.948Z,18.70
2019-06-08T11:35:48.269Z,18.60
2019-06-08T11:38:17.448Z,18.80
2019-06-08T11:40:47.861Z,18.70
2019-06-08T11:43:18.300Z,18.70
2019-06-08T11:45:48.092Z,18.80
2019-06-08T11:48:18.292Z,19.00
2019-06-08T11:50:49.050Z,19.20
2019-06-08T11:53:18.274Z,19.40
2019-06-08T11:55:50.662Z,19.50
2019-06-08T11:58:22.158Z,19.60
2019-06-08T12:00:54.110Z,19.30
2019-06-08T12:03:22.994Z,19.30
2019-06-08T12:05:51.893Z,19.20
2019-06-08T12:08:20.895Z,19.20
2019-06-08T12:10:49.870Z,19.00
2019-06-08T12:13:18.587Z,18.80
2019-06-08T12:15:49.001Z,19.20
2019-06-08T12:18:18.256Z,19.10
2019-06-08T12:20:48.826Z,19.30
2019-06-08T12:23:17.740Z,19.40
2019-06-08T12:25:46.379Z,19.30
2019-06-08T12:28:14.921Z,19.20
2019-06-08T12:30:43.561Z,19.00
2019-06-08T12:33:13.608Z,19.40
2019-06-08T12:35:42.423Z,19.80
2019-06-08T12:38:11.514Z,20.00
2019-06-08T12:40:41.670Z,19.80
2019-06-08T12:43:12.690Z,19.70
2019-06-08T12:45:40.600Z,19.50
2019-06-08T12:48:15.741Z,19.40
2019-06-08T12:50:39.579Z,19.50
2019-06-08T12:53:14.385Z,19.40
2019-06-08T12:55:38.450Z,19.40
2019-06-08T12:58:09.648Z,19.50
2019-06-08T13:00:38.364Z,19.60
2019-06-08T13:03:08.598Z,19.80
2019-06-08T13:05:38.036Z,19.90
2019-06-08T13:08:08.819Z,20.10
2019-06-08T13:10:38.195Z,20.10
2019-06-08T13:13:08.457Z,20.00
2019-06-08T13:15:38.471Z,19.70
2019-06-08T13:18:08.941Z,19.50
2019-06-08T13:20:38.880Z,19.20
2019-06-08T13:23:08.666Z,19.00
2019-06-08T13:25:43.465Z,19.20
2019-06-08T13:28:13.151Z,19.40
2019-06-08T13:30:39.085Z,19.40
2019-06-08T13:33:09.904Z,19.40
2019-06-08T13:35:39.498Z,19.50
2019-06-08T13:38:08.832Z,19.80
2019-06-08T13:40:40.227Z,20.00
2019-06-08T13:43:08.254Z,20.10
2019-06-08T13:45:39.417Z,20.00
2019-06-08T13:48:08.958Z,19.80
2019-06-08T13:50:37.784Z,19.90
2019-06-08T13:53:10.558Z,20.00
2019-06-08T13:55:51.693Z,20.00
2019-06-08T13:58:07.370Z,19.80
2019-06-08T14:00:38.428Z,19.50
2019-06-08T14:03:08.848Z,19.20
2019-06-08T14:05:38.922Z,19.40
2019-06-08T14:08:10.621Z,19.80
2019-06-08T14:10:42.267Z,20.00
2019-06-08T14:13:11.237Z,20.30
2019-06-08T14:15:40.051Z,20.30
2019-06-08T14:18:09.089Z,20.50
2019-06-08T14:20:38.522Z,20.60
2019-06-08T14:23:09.200Z,20.60
2019-06-08T14:25:47.927Z,20.80
2019-06-08T14:28:08.552Z,20.70
2019-06-08T14:30:37.764Z,20.70
2019-06-08T14:33:08.311Z,20.60
2019-06-08T14:35:37.104Z,20.40
2019-06-08T14:38:05.735Z,20.00
2019-06-08T14:40:37.563Z,20.10
2019-06-08T14:43:10.509Z,20.00
2019-06-08T14:45:37.797Z,20.10
2019-06-08T14:48:06.779Z,20.30
2019-06-08T14:50:40.736Z,20.40
2019-06-08T14:53:08.634Z,20.40
2019-06-08T14:55:38.654Z,20.30
2019-06-08T14:58:08.328Z,20.30
2019-06-08T15:00:38.029Z,20.20
2019-06-08T15:03:07.673Z,20.30
2019-06-08T15:05:36.739Z,20.50
2019-06-08T15:08:08.170Z,20.60
2019-06-08T15:10:35.751Z,20.70
2019-06-08T15:13:04.423Z,20.60
2019-06-08T15:15:33.019Z,20.40
2019-06-08T15:18:04.714Z,20.30
2019-06-08T15:20:31.805Z,20.30
2019-06-08T15:23:00.443Z,20.30
2019-06-08T15:25:32.561Z,20.30
2019-06-08T15:28:01.273Z,19.80
2019-06-08T15:30:31.487Z,19.70
2019-06-08T15:33:00.786Z,19.80
2019-06-08T15:35:29.600Z,20.00
2019-06-08T15:37:58.614Z,19.90
2019-06-08T15:40:27.850Z,19.80
2019-06-08T15:42:58.609Z,20.00
2019-06-08T15:45:29.385Z,20.00
2019-06-08T15:48:02.364Z,19.80
2019-06-08T15:50:31.257Z,19.60
2019-06-08T15:53:00.213Z,19.40
2019-06-08T15:55:31.351Z,19.40
2019-06-08T15:57:59.283Z,19.30
2019-06-08T16:00:30.025Z,19.40
2019-06-08T16:02:58.680Z,19.60
2019-06-08T16:05:27.790Z,19.60
2019-06-08T16:07:56.655Z,19.60
2019-06-08T16:10:26.337Z,19.60
2019-06-08T16:12:55.109Z,19.70
2019-06-08T16:15:24.848Z,19.70
2019-06-08T16:17:54.067Z,19.60
2019-06-08T16:20:22.733Z,19.30
2019-06-08T16:22:51.445Z,19.00
2019-06-08T16:25:19.991Z,18.70
2019-06-08T16:27:48.900Z,18.50
2019-06-08T16:30:17.734Z,18.30
2019-06-08T16:32:46.678Z,18.30
2019-06-08T16:35:15.583Z,18.20
2019-06-08T16:37:46.963Z,18.20
2019-06-08T16:40:15.792Z,18.20
2019-06-08T16:42:44.350Z,18.20
2019-06-08T16:45:13.720Z,18.20
2019-06-08T16:47:43.886Z,18.20
2019-06-08T16:50:24.067Z,18.30
2019-06-08T16:52:46.100Z,18.20
2019-06-08T16:55:14.706Z,18.20
2019-06-08T16:57:43.246Z,18.20
2019-06-08T17:02:42.427Z,18.10
2019-06-08T17:05:11.111Z,18.00
2019-06-08T17:07:39.830Z,18.00
2019-06-08T17:10:08.622Z,17.90
2019-06-08T17:12:37.224Z,18.10
2019-06-08T17:15:06.684Z,18.20
2019-06-08T17:17:38.566Z,18.40
2019-06-08T17:20:08.625Z,18.50
2019-06-08T17:22:38.660Z,18.40
2019-06-08T17:25:27.018Z,18.40
2019-06-08T17:27:55.584Z,18.40
2019-06-08T17:30:24.142Z,18.40
2019-06-08T17:32:52.962Z,18.30
2019-06-08T17:35:22.149Z,18.10
2019-06-08T17:37:50.736Z,18.00
2019-06-08T17:40:19.888Z,18.00
2019-06-08T17:42:57.448Z,18.00
2019-06-08T17:45:26.067Z,18.00
2019-06-08T17:47:54.754Z,17.90
2019-06-08T17:50:23.487Z,17.90
2019-06-08T17:52:52.169Z,17.90
2019-06-08T17:55:20.847Z,17.80
2019-06-08T17:57:53.456Z,17.70
2019-06-08T18:00:21.964Z,17.70
2019-06-08T18:02:51.010Z,17.60
2019-06-08T18:05:19.726Z,17.60
2019-06-08T18:07:49.162Z,17.60
2019-06-08T18:10:18.134Z,17.50
2019-06-08T18:12:49.166Z,17.50
2019-06-08T18:15:17.563Z,17.40
2019-06-08T18:17:48.211Z,17.40
2019-06-08T18:20:18.195Z,17.30
2019-06-08T18:22:49.399Z,17.30
2019-06-08T18:25:19.761Z,17.30
2019-06-08T18:28:05.501Z,17.20
2019-06-08T18:30:20.806Z,17.20
2019-06-08T18:32:49.442Z,17.20
2019-06-08T18:35:18.460Z,17.10
2019-06-08T18:37:48.770Z,17.10
2019-06-08T18:40:18.168Z,17.00
2019-06-08T18:42:48.809Z,16.90
2019-06-08T18:45:18.916Z,16.90
2019-06-08T18:47:48.539Z,16.90
2019-06-08T18:50:17.617Z,16.80
2019-06-08T18:52:47.326Z,16.70
2019-06-08T18:55:18.234Z,16.70
2019-06-08T18:57:49.354Z,16.60
2019-06-08T19:00:21.365Z,16.60
2019-06-08T19:02:54.389Z,16.50
2019-06-08T19:05:21.179Z,16.50
2019-06-08T19:07:52.254Z,16.50
2019-06-08T19:13:21.836Z,16.30
2019-06-08T19:15:53.032Z,16.20
2019-06-08T19:18:20.811Z,16.10
2019-06-08T19:20:52.657Z,16.00
2019-06-08T19:23:21.432Z,16.00
2019-06-08T19:25:49.922Z,15.90
2019-06-08T19:28:32.708Z,15.80
2019-06-08T19:30:51.182Z,15.80
2019-06-08T19:33:19.246Z,15.70
2019-06-08T19:35:49.979Z,15.70
2019-06-08T19:38:18.251Z,15.60
2019-06-08T19:40:46.790Z,15.60
2019-06-08T19:43:15.449Z,15.60
2019-06-08T19:45:45.473Z,15.60
2019-06-08T19:48:17.353Z,15.60
2019-06-08T19:50:47.295Z,15.60
2019-06-08T19:53:18.153Z,15.60
2019-06-08T19:55:52.050Z,15.60
2019-06-08T19:58:18.183Z,15.60
2019-06-08T20:00:52.358Z,15.60
2019-06-08T20:03:17.799Z,15.60
2019-06-08T20:05:50.156Z,15.60
2019-06-08T20:08:17.590Z,15.60
2019-06-08T20:10:48.011Z,15.60
2019-06-08T20:13:17.111Z,15.60
2019-06-08T20:15:50.657Z,15.50
2019-06-08T20:18:17.233Z,15.50
2019-06-08T20:20:49.006Z,15.40
2019-06-08T20:23:18.110Z,15.30
2019-06-08T20:26:08.328Z,15.30
2019-06-08T20:28:37.256Z,15.20
2019-06-08T20:31:07.504Z,15.10
2019-06-08T20:33:39.030Z,15.00
2019-06-08T20:36:08.318Z,15.00
2019-06-08T20:38:41.997Z,15.00
2019-06-08T20:41:07.993Z,14.90
2019-06-08T20:43:38.085Z,14.80
2019-06-08T20:46:08.163Z,14.80
2019-06-08T20:48:37.770Z,14.80
2019-06-08T20:51:07.811Z,14.70
2019-06-08T20:53:38.767Z,14.60
2019-06-08T20:56:08.132Z,14.60
2019-06-08T20:58:37.199Z,14.40
2019-06-08T21:01:07.383Z,14.40
2019-06-08T21:03:36.131Z,14.30
2019-06-08T21:06:04.967Z,14.20
2019-06-08T21:08:33.730Z,14.10
2019-06-08T21:11:02.743Z,14.10
2019-06-08T21:13:31.292Z,13.90
2019-06-08T21:16:00.846Z,13.80
2019-06-08T21:18:29.773Z,13.80
2019-06-08T21:20:58.332Z,13.80
2019-06-08T21:23:28.130Z,13.80
2019-06-08T21:25:59.976Z,13.90
2019-06-08T21:28:27.955Z,14.00
2019-06-08T21:31:01.649Z,14.10
2019-06-08T21:33:27.410Z,14.20
2019-06-08T21:36:03.485Z,14.20
2019-06-08T21:38:28.191Z,14.10
2019-06-08T21:41:00.888Z,14.10
2019-06-08T21:43:28.125Z,14.00
2019-06-08T21:45:59.473Z,14.00
2019-06-08T21:48:27.530Z,13.90
2019-06-08T21:51:01.058Z,13.90
2019-06-08T21:53:27.543Z,13.80
2019-06-08T21:55:56.330Z,13.80
2019-06-08T21:58:24.922Z,13.70
2019-06-08T22:00:54.739Z,13.70
2019-06-08T22:03:23.618Z,13.70
2019-06-08T22:06:11.533Z,13.70
2019-06-08T22:08:40.075Z,13.60
2019-06-08T22:11:09.224Z,13.50
2019-06-08T22:13:37.919Z,13.50
2019-06-08T22:16:08.201Z,13.40
2019-06-08T22:18:38.034Z,13.40
2019-06-08T22:21:18.218Z,13.30
2019-06-08T22:23:47.609Z,13.20
2019-06-08T22:26:17.786Z,13.10
2019-06-08T22:28:48.182Z,13.00
2019-06-08T22:31:17.708Z,13.00
2019-06-08T22:33:48.376Z,13.00
2019-06-08T22:36:16.995Z,12.90
2019-06-08T22:38:47.606Z,12.90
2019-06-08T22:41:17.373Z,12.90
2019-06-08T22:43:48.096Z,12.80
2019-06-08T22:46:17.781Z,12.80
2019-06-08T22:48:47.824Z,12.80
2019-06-08T22:51:18.764Z,12.80
2019-06-08T22:53:47.881Z,12.70
2019-06-08T22:56:18.349Z,12.70
2019-06-08T22:58:47.993Z,12.60
2019-06-08T23:01:18.468Z,12.60
2019-06-08T23:03:47.577Z,12.50
2019-06-08T23:06:17.653Z,12.50
2019-06-08T23:08:48.041Z,12.50
2019-06-08T23:11:17.983Z,12.40
2019-06-08T23:13:47.320Z,12.30
2019-06-08T23:16:18.033Z,12.30
2019-06-08T23:18:47.863Z,12.20
2019-06-08T23:21:18.038Z,12.20
2019-06-08T23:23:47.832Z,12.10
2019-06-08T23:26:18.376Z,12.10
2019-06-08T23:28:47.278Z,12.00
2019-06-08T23:31:22.442Z,11.90
2019-06-08T23:33:48.218Z,11.90
2019-06-08T23:36:46.540Z,11.80
2019-06-08T23:38:48.172Z,11.80
2019-06-08T23:41:17.766Z,11.80
2019-06-08T23:43:48.079Z,11.70
2019-06-08T23:46:18.113Z,11.70
2019-06-08T23:48:48.383Z,11.60
2019-06-08T23:51:18.059Z,11.60
2019-06-08T23:53:47.767Z,11.50
2019-06-08T23:56:18.301Z,11.40
2019-06-08T23:58:48.157Z,11.40
